createdAt,value
2022-11-09T00:01:28.406Z,16.58
2022-11-09T00:06:30.895Z,15.90
2022-11-09T00:11:32.475Z,14.85
2022-11-09T00:16:33.907Z,16.05
2022-11-09T00:21:35.322Z,13.07
2022-11-09T00:26:36.726Z,15.75
2022-11-09T00:31:38.193Z,13.88
2022-11-09T00:36:39.672Z,16.08
2022-11-09T00:41:41.238Z,15.35
2022-11-09T00:46:42.643Z,16.60
2022-11-09T00:51:44.055Z,16.05
2022-11-09T00:56:45.475Z,14.55
2022-11-09T01:01:46.880Z,16.98
2022-11-09T01:06:48.364Z,16.65
2022-11-09T01:11:49.891Z,16.55
2022-11-09T01:16:51.756Z,15.85
2022-11-09T01:21:53.240Z,15.48
2022-11-09T01:26:55.015Z,16.75
2022-11-09T01:31:56.498Z,16.77
2022-11-09T01:36:57.942Z,17.45
2022-11-09T01:41:59.353Z,16.55
2022-11-09T01:47:06.355Z,17.40
2022-11-09T01:52:31.527Z,18.05
2022-11-09T01:57:41.459Z,18.38
2022-11-09T02:03:08.595Z,17.17
2022-11-09T02:08:12.763Z,17.25
2022-11-09T02:13:18.384Z,17.98
2022-11-09T02:18:21.402Z,18.02
2022-11-09T02:23:25.307Z,18.90
2022-11-09T02:28:28.007Z,18.17
2022-11-09T02:33:29.460Z,18.08
2022-11-09T02:38:31.935Z,17.35
2022-11-09T02:43:35.961Z,16.98
2022-11-09T02:48:37.359Z,17.33
2022-11-09T02:53:38.756Z,17.92
2022-11-09T02:58:40.222Z,18.50
2022-11-09T03:03:41.807Z,17.67
2022-11-09T03:08:43.224Z,18.92
2022-11-09T03:13:44.624Z,17.65
2022-11-09T03:18:46.157Z,18.10
2022-11-09T03:23:48.425Z,18.52
2022-11-09T03:28:49.968Z,17.63
2022-11-09T03:33:51.366Z,18.52
2022-11-09T03:38:52.795Z,19.50
2022-11-09T03:43:54.296Z,18.55
2022-11-09T03:48:55.720Z,18.42
2022-11-09T03:53:57.129Z,18.50
2022-11-09T03:58:58.562Z,17.80
2022-11-09T04:04:00.033Z,18.95
2022-11-09T04:09:01.563Z,17.98
2022-11-09T04:14:02.966Z,19.10
2022-11-09T04:19:04.436Z,18.80
2022-11-09T04:24:06.011Z,18.20
2022-11-09T04:29:07.659Z,19.15
2022-11-09T04:34:09.090Z,18.38
2022-11-09T04:39:11.278Z,17.48
2022-11-09T04:44:12.718Z,17.58
2022-11-09T04:49:14.165Z,17.50
2022-11-09T04:54:15.629Z,18.25
2022-11-09T04:59:17.257Z,17.52
2022-11-09T05:04:18.817Z,17.50
2022-11-09T05:09:20.287Z,18.88
2022-11-09T05:14:21.752Z,19.40
2022-11-09T05:19:23.182Z,17.88
2022-11-09T05:24:24.593Z,18.50
2022-11-09T05:29:26.029Z,18.15
2022-11-09T05:34:27.467Z,17.50
2022-11-09T05:39:29.127Z,18.33
2022-11-09T05:44:30.783Z,20.48
2022-11-09T05:49:32.190Z,20.00
2022-11-09T05:54:33.610Z,19.73
2022-11-09T05:59:35.054Z,19.73
2022-11-09T06:04:36.456Z,19.60
2022-11-09T06:09:37.955Z,18.85
2022-11-09T06:14:39.475Z,18.02
2022-11-09T06:19:40.893Z,18.33
2022-11-09T06:24:42.449Z,18.52
2022-11-09T06:29:43.856Z,19.75
2022-11-09T06:34:48.245Z,19.05
2022-11-09T06:39:51.654Z,17.85
2022-11-09T06:44:53.127Z,17.98
2022-11-09T06:49:54.698Z,17.05
2022-11-09T06:54:56.112Z,17.63
2022-11-09T07:00:00.160Z,18.85
2022-11-09T07:05:01.577Z,18.85
2022-11-09T07:10:03.256Z,18.92
2022-11-09T07:15:05.931Z,20.00
2022-11-09T07:20:09.828Z,19.20
2022-11-09T07:25:12.613Z,20.52
2022-11-09T07:30:14.949Z,20.30
2022-11-09T07:35:16.494Z,19.35
2022-11-09T07:40:18.076Z,20.13
2022-11-09T07:45:19.498Z,19.90
2022-11-09T07:50:20.894Z,20.38
2022-11-09T07:55:22.930Z,22.98
2022-11-09T08:00:25.975Z,21.83
2022-11-09T08:05:27.445Z,19.98
2022-11-09T08:10:30.248Z,20.83
2022-11-09T08:15:32.152Z,19.20
2022-11-09T08:20:34.643Z,21.02
2022-11-09T08:25:36.393Z,20.30
2022-11-09T08:30:37.882Z,20.13
2022-11-09T08:35:39.605Z,18.63
2022-11-09T08:40:41.055Z,18.98
2022-11-09T08:45:42.471Z,16.00
2022-11-09T08:50:43.922Z,17.40
2022-11-09T08:55:49.301Z,17.20
2022-11-09T09:00:51.216Z,15.60
2022-11-09T09:05:52.760Z,17.75
2022-11-09T09:10:54.182Z,15.20
2022-11-09T09:15:55.601Z,14.25
2022-11-09T09:20:57.009Z,16.25
2022-11-09T09:25:58.843Z,16.58
2022-11-09T09:31:01.662Z,16.08
2022-11-09T09:36:03.296Z,15.85
2022-11-09T09:41:06.765Z,15.77
2022-11-09T09:46:22.557Z,16.02
2022-11-09T09:51:37.756Z,15.70
2022-11-09T09:56:42.125Z,15.38
2022-11-09T10:01:44.715Z,15.50
2022-11-09T10:06:59.216Z,15.02
2022-11-09T10:12:12.984Z,13.93
2022-11-09T10:17:29.474Z,13.73
2022-11-09T10:22:54.746Z,12.10
2022-11-09T10:28:12.797Z,13.02
2022-11-09T10:33:20.812Z,13.82
2022-11-09T10:38:28.132Z,14.40
2022-11-09T10:43:29.545Z,13.75
2022-11-09T10:48:36.518Z,13.05
2022-11-09T10:53:38.104Z,13.77
2022-11-09T10:59:00.894Z,13.25
2022-11-09T11:04:21.249Z,13.23
2022-11-09T11:09:23.387Z,11.60
2022-11-09T11:14:41.555Z,13.40
2022-11-09T11:19:43.020Z,14.17
2022-11-09T11:24:57.913Z,13.77
2022-11-09T11:30:10.535Z,13.07
2022-11-09T11:35:18.460Z,12.90
2022-11-09T11:40:27.835Z,14.82
2022-11-09T11:45:41.852Z,12.38
2022-11-09T11:51:14.702Z,13.30
2022-11-09T11:56:24.986Z,14.45
2022-11-09T12:01:56.643Z,13.43
2022-11-09T12:07:20.975Z,13.48
2022-11-09T12:12:25.249Z,13.25
2022-11-09T12:17:52.260Z,12.75
2022-11-09T12:23:04.442Z,13.40
2022-11-09T12:28:41.104Z,12.52
2022-11-09T12:33:51.363Z,13.18
2022-11-09T12:39:00.612Z,13.07
2022-11-09T12:44:27.605Z,14.15
2022-11-09T12:49:36.840Z,14.27
2022-11-09T12:54:44.263Z,12.07
2022-11-09T12:59:50.418Z,12.85
2022-11-09T13:05:00.747Z,12.98
2022-11-09T13:10:02.848Z,11.68
2022-11-09T13:15:26.934Z,14.15
2022-11-09T13:25:59.094Z,14.18
2022-11-09T13:31:00.557Z,13.43
2022-11-09T13:36:07.912Z,14.15
2022-11-09T13:41:31.901Z,14.00
2022-11-09T13:46:39.062Z,14.40
2022-11-09T13:51:48.000Z,14.70
2022-11-09T13:56:50.554Z,13.93
2022-11-09T14:01:57.149Z,15.35
2022-11-09T14:07:10.871Z,14.23
2022-11-09T14:12:32.013Z,14.90
2022-11-09T14:17:57.340Z,14.88
2022-11-09T14:22:58.823Z,16.33
2022-11-09T14:28:00.351Z,17.02
2022-11-09T14:33:01.771Z,17.27
2022-11-09T14:38:17.383Z,20.17
2022-11-09T14:43:35.972Z,18.05
2022-11-09T14:48:39.796Z,17.73
2022-11-09T14:53:44.979Z,16.92
2022-11-09T14:58:47.387Z,16.02
2022-11-09T15:04:07.392Z,17.65
2022-11-09T15:09:14.549Z,16.90
2022-11-09T15:14:23.615Z,18.38
2022-11-09T15:24:47.167Z,19.05
2022-11-09T15:29:48.637Z,19.98
2022-11-09T15:34:55.040Z,20.00
2022-11-09T15:39:58.266Z,18.77
2022-11-09T15:45:00.356Z,20.70
2022-11-09T15:50:15.099Z,20.42
2022-11-09T15:55:22.206Z,19.70
2022-11-09T16:00:23.881Z,18.30
2022-11-09T16:05:27.728Z,20.27
2022-11-09T16:10:30.720Z,20.25
2022-11-09T16:15:33.493Z,18.73
2022-11-09T16:20:34.999Z,20.00
2022-11-09T16:25:36.593Z,19.90
2022-11-09T16:30:41.543Z,20.13
2022-11-09T16:35:45.544Z,20.48
2022-11-09T16:40:46.991Z,20.40
2022-11-09T16:45:50.136Z,22.13
2022-11-09T16:50:53.654Z,20.67
2022-11-09T16:55:55.204Z,21.92
2022-11-09T17:01:10.606Z,20.38
2022-11-09T17:06:13.737Z,21.17
2022-11-09T17:11:15.779Z,22.35
2022-11-09T17:16:20.318Z,21.63
2022-11-09T17:21:24.170Z,22.02
2022-11-09T17:26:26.342Z,22.23
2022-11-09T17:31:27.856Z,20.77
2022-11-09T17:36:49.187Z,22.17
2022-11-09T17:41:50.864Z,23.40
2022-11-09T17:46:52.423Z,22.90
2022-11-09T17:51:54.212Z,23.67
2022-11-09T17:56:55.624Z,23.35
2022-11-09T18:01:57.119Z,24.08
2022-11-09T18:06:58.705Z,27.40
2022-11-09T18:12:00.136Z,27.27
2022-11-09T18:17:01.677Z,27.73
2022-11-09T18:22:04.863Z,25.85
2022-11-09T18:27:07.971Z,25.23
2022-11-09T18:32:09.373Z,26.45
2022-11-09T18:37:10.768Z,29.67
2022-11-09T18:42:12.333Z,26.92
2022-11-09T18:47:15.089Z,26.52
2022-11-09T18:52:16.710Z,25.08
2022-11-09T18:57:20.030Z,29.23
2022-11-09T19:02:21.697Z,29.92
2022-11-09T19:07:23.090Z,31.55
2022-11-09T19:12:25.068Z,32.42
2022-11-09T19:17:26.527Z,31.20
2022-11-09T19:22:29.122Z,34.80
2022-11-09T19:27:30.530Z,35.17
2022-11-09T19:32:31.993Z,31.17
2022-11-09T19:37:33.391Z,31.60
2022-11-09T19:42:34.816Z,32.40
2022-11-09T19:47:36.260Z,33.30
2022-11-09T19:52:38.806Z,32.50
2022-11-09T19:57:40.212Z,32.22
2022-11-09T20:02:41.642Z,32.55
2022-11-09T20:07:43.528Z,34.13
2022-11-09T20:12:50.670Z,33.88
2022-11-09T20:17:52.070Z,36.42
2022-11-09T20:22:53.517Z,35.10
2022-11-09T20:27:55.246Z,36.22
2022-11-09T20:32:56.789Z,33.65
2022-11-09T20:37:58.260Z,37.10
2022-11-09T20:42:59.692Z,38.15
2022-11-09T20:48:14.840Z,43.97
2022-11-09T20:53:22.565Z,37.83
2022-11-09T20:58:25.854Z,34.70
2022-11-09T21:03:27.804Z,39.38
2022-11-09T21:08:29.448Z,35.63
2022-11-09T21:13:31.199Z,32.80
2022-11-09T21:18:32.989Z,32.20
2022-11-09T21:23:53.307Z,29.17
2022-11-09T21:29:13.364Z,26.60
2022-11-09T21:34:14.955Z,24.85
2022-11-09T21:39:16.682Z,22.85
2022-11-09T21:44:18.521Z,23.98
2022-11-09T21:49:19.960Z,22.80
2022-11-09T21:54:22.348Z,22.02
2022-11-09T21:59:24.308Z,22.75
2022-11-09T22:04:25.734Z,20.70
2022-11-09T22:09:32.420Z,21.00
2022-11-09T22:15:00.145Z,20.00
2022-11-09T22:20:20.241Z,17.48
2022-11-09T22:25:21.643Z,19.42
2022-11-09T22:30:23.056Z,18.45
2022-11-09T22:35:24.482Z,17.63
2022-11-09T22:40:25.934Z,17.85
2022-11-09T22:45:27.363Z,18.48
2022-11-09T22:50:28.829Z,18.63
2022-11-09T22:55:30.548Z,15.45
2022-11-09T23:00:31.983Z,16.05
2022-11-09T23:05:33.423Z,14.65
2022-11-09T23:10:35.120Z,16.23
2022-11-09T23:15:36.535Z,14.73
2022-11-09T23:20:38.538Z,15.90
2022-11-09T23:25:54.895Z,15.20
2022-11-09T23:31:04.792Z,16.77
2022-11-09T23:36:07.464Z,17.33
2022-11-09T23:41:11.491Z,18.17
2022-11-09T23:46:14.675Z,17.58
2022-11-09T23:51:18.457Z,17.50
2022-11-09T23:56:21.156Z,18.45
